createdAt,value
2022-10-05T00:00:14.020Z,530.00
2022-10-05T00:01:14.088Z,527.00
2022-10-05T00:02:14.075Z,526.00
2022-10-05T00:03:14.057Z,525.00
2022-10-05T00:04:14.275Z,526.00
2022-10-05T00:05:14.131Z,526.00
2022-10-05T00:06:14.009Z,525.00
2022-10-05T00:07:14.086Z,525.00
2022-10-05T00:08:13.849Z,524.00
2022-10-05T00:09:14.088Z,522.00
2022-10-05T00:10:14.016Z,519.00
2022-10-05T00:11:13.850Z,518.00
2022-10-05T00:12:13.940Z,519.00
2022-10-05T00:13:14.085Z,520.00
2022-10-05T00:14:14.245Z,521.00
2022-10-05T00:15:13.929Z,522.00
2022-10-05T00:16:14.072Z,519.00
2022-10-05T00:17:14.087Z,519.00
2022-10-05T00:18:14.247Z,519.00
2022-10-05T00:19:14.085Z,516.00
2022-10-05T00:20:13.925Z,518.00
2022-10-05T00:21:13.766Z,517.00
2022-10-05T00:22:13.702Z,517.00
2022-10-05T00:23:14.087Z,517.00
2022-10-05T00:24:13.925Z,520.00
2022-10-05T00:25:13.771Z,520.00
2022-10-05T00:26:13.695Z,520.00
2022-10-05T00:27:13.764Z,520.00
2022-10-05T00:28:13.742Z,522.00
2022-10-05T00:29:13.571Z,524.00
2022-10-05T00:30:13.929Z,524.00
2022-10-05T00:31:13.564Z,524.00
2022-10-05T00:32:13.766Z,525.00
2022-10-05T00:33:13.772Z,524.00
2022-10-05T00:34:13.606Z,525.00
2022-10-05T00:35:13.535Z,523.00
2022-10-05T00:36:13.608Z,521.00
2022-10-05T00:37:13.605Z,523.00
2022-10-05T00:38:13.706Z,525.00
2022-10-05T00:39:13.591Z,522.00
2022-10-05T00:40:13.930Z,522.00
2022-10-05T00:41:13.766Z,522.00
2022-10-05T00:42:13.607Z,520.00
2022-10-05T00:43:13.451Z,519.00
2022-10-05T00:44:13.368Z,520.00
2022-10-05T00:45:13.479Z,520.00
2022-10-05T00:46:13.445Z,520.00
2022-10-05T00:47:13.454Z,520.00
2022-10-05T00:48:13.606Z,517.00
2022-10-05T00:49:13.766Z,519.00
2022-10-05T00:50:13.610Z,522.00
2022-10-05T00:51:13.769Z,522.00
2022-10-05T00:52:13.284Z,521.00
2022-10-05T00:53:13.293Z,521.00
2022-10-05T00:54:18.071Z,523.00
2022-10-05T00:55:13.460Z,524.00
2022-10-05T00:56:13.365Z,525.00
2022-10-05T00:57:13.301Z,529.00
2022-10-05T00:58:13.376Z,527.00
2022-10-05T00:59:13.212Z,527.00
2022-10-05T01:00:13.604Z,526.00
2022-10-05T01:01:13.238Z,526.00
2022-10-05T01:02:13.228Z,525.00
2022-10-05T01:03:13.283Z,525.00
2022-10-05T01:04:13.285Z,527.00
2022-10-05T01:05:13.130Z,527.00
2022-10-05T01:06:13.092Z,526.00
2022-10-05T01:07:13.207Z,528.00
2022-10-05T01:08:13.293Z,527.00
2022-10-05T01:09:13.125Z,525.00
2022-10-05T01:10:13.055Z,525.00
2022-10-05T01:11:13.125Z,528.00
2022-10-05T01:12:13.289Z,528.00
2022-10-05T01:13:13.214Z,527.00
2022-10-05T01:14:13.045Z,527.00
2022-10-05T01:15:13.448Z,527.00
2022-10-05T01:16:13.094Z,529.00
2022-10-05T01:17:12.963Z,530.00
2022-10-05T01:18:13.043Z,531.00
2022-10-05T01:19:13.214Z,530.00
2022-10-05T01:20:12.965Z,526.00
2022-10-05T01:21:12.952Z,524.00
2022-10-05T01:22:13.135Z,525.00
2022-10-05T01:23:13.125Z,526.00
2022-10-05T01:24:13.048Z,524.00
2022-10-05T01:25:12.905Z,524.00
2022-10-05T01:26:13.285Z,523.00
2022-10-05T01:27:12.996Z,525.00
2022-10-05T01:28:13.081Z,525.00
2022-10-05T01:29:12.883Z,523.00
2022-10-05T01:30:12.965Z,523.00
2022-10-05T01:31:13.029Z,523.00
2022-10-05T01:32:12.965Z,522.00
2022-10-05T01:33:12.826Z,522.00
2022-10-05T01:34:12.965Z,520.00
2022-10-05T01:35:13.125Z,520.00
2022-10-05T01:36:12.738Z,523.00
2022-10-05T01:37:12.816Z,524.00
2022-10-05T01:38:12.762Z,525.00
2022-10-05T01:39:12.809Z,524.00
2022-10-05T01:40:12.977Z,524.00
2022-10-05T01:41:12.814Z,524.00
2022-10-05T01:42:12.986Z,524.00
2022-10-05T01:43:12.823Z,522.00
2022-10-05T01:44:12.980Z,520.00
2022-10-05T01:45:12.806Z,521.00
2022-10-05T01:46:13.036Z,519.00
2022-10-05T01:47:12.579Z,521.00
2022-10-05T01:48:12.967Z,522.00
2022-10-05T01:49:12.804Z,521.00
2022-10-05T01:50:12.973Z,523.00
2022-10-05T01:51:12.645Z,521.00
2022-10-05T01:52:12.967Z,521.00
2022-10-05T01:53:12.805Z,521.00
2022-10-05T01:54:13.035Z,521.00
2022-10-05T01:55:12.832Z,522.00
2022-10-05T01:56:12.647Z,521.00
2022-10-05T01:57:12.484Z,522.00
2022-10-05T01:58:12.426Z,524.00
2022-10-05T01:59:12.485Z,524.00
2022-10-05T02:00:12.644Z,526.00
2022-10-05T02:01:12.542Z,528.00
2022-10-05T02:02:12.710Z,527.00
2022-10-05T02:03:12.491Z,529.00
2022-10-05T02:04:17.727Z,526.00
2022-10-05T02:05:13.443Z,528.00
2022-10-05T02:06:12.328Z,527.00
2022-10-05T02:07:12.484Z,528.00
2022-10-05T02:08:12.409Z,527.00
2022-10-05T02:09:12.323Z,526.00
2022-10-05T02:10:12.426Z,527.00
2022-10-05T02:11:12.504Z,528.00
2022-10-05T02:12:12.323Z,526.00
2022-10-05T02:13:12.488Z,525.00
2022-10-05T02:14:12.333Z,524.00
2022-10-05T02:15:12.485Z,525.00
2022-10-05T02:16:12.215Z,524.00
2022-10-05T02:17:12.490Z,527.00
2022-10-05T02:18:12.326Z,527.00
2022-10-05T02:19:12.247Z,529.00
2022-10-05T02:20:12.324Z,529.00
2022-10-05T02:21:12.322Z,530.00
2022-10-05T02:22:12.324Z,530.00
2022-10-05T02:23:12.164Z,530.00
2022-10-05T02:24:12.324Z,531.00
2022-10-05T02:25:12.257Z,534.00
2022-10-05T02:26:12.324Z,533.00
2022-10-05T02:27:12.483Z,531.00
2022-10-05T02:28:12.134Z,531.00
2022-10-05T02:29:12.005Z,530.00
2022-10-05T02:30:16.350Z,529.00
2022-10-05T02:31:11.987Z,530.00
2022-10-05T02:32:12.130Z,533.00
2022-10-05T02:33:12.167Z,532.00
2022-10-05T02:34:12.005Z,529.00
2022-10-05T02:35:11.976Z,530.00
2022-10-05T02:36:11.924Z,527.00
2022-10-05T02:37:11.928Z,531.00
2022-10-05T02:38:12.007Z,531.00
2022-10-05T02:39:12.163Z,531.00
2022-10-05T02:40:12.327Z,531.00
2022-10-05T02:41:12.164Z,528.00
2022-10-05T02:42:11.843Z,529.00
2022-10-05T02:43:11.935Z,530.00
2022-10-05T02:44:11.842Z,530.00
2022-10-05T02:45:12.162Z,528.00
2022-10-05T02:46:11.823Z,528.00
2022-10-05T02:47:11.842Z,531.00
2022-10-05T02:48:11.770Z,533.00
2022-10-05T02:49:11.844Z,536.00
2022-10-05T02:50:11.773Z,535.00
2022-10-05T02:51:11.842Z,534.00
2022-10-05T02:52:11.782Z,534.00
2022-10-05T02:53:11.927Z,535.00
2022-10-05T02:54:12.008Z,533.00
2022-10-05T02:55:11.845Z,533.00
2022-10-05T02:56:11.773Z,535.00
2022-10-05T02:57:11.682Z,537.00
2022-10-05T02:58:11.693Z,539.00
2022-10-05T02:59:11.845Z,540.00
2022-10-05T03:00:11.681Z,543.00
2022-10-05T03:01:11.862Z,543.00
2022-10-05T03:02:11.667Z,543.00
2022-10-05T03:03:11.615Z,540.00
2022-10-05T03:04:11.682Z,539.00
2022-10-05T03:05:11.803Z,537.00
2022-10-05T03:06:11.521Z,537.00
2022-10-05T03:07:14.095Z,538.00
2022-10-05T03:08:11.765Z,538.00
2022-10-05T03:09:11.527Z,539.00
2022-10-05T03:10:11.684Z,539.00
2022-10-05T03:11:11.525Z,539.00
2022-10-05T03:12:12.008Z,535.00
2022-10-05T03:13:11.522Z,537.00
2022-10-05T03:14:11.460Z,541.00
2022-10-05T03:15:11.857Z,540.00
2022-10-05T03:16:11.483Z,538.00
2022-10-05T03:17:11.843Z,537.00
2022-10-05T03:18:11.689Z,539.00
2022-10-05T03:19:11.341Z,540.00
2022-10-05T03:20:11.685Z,540.00
2022-10-05T03:21:11.397Z,540.00
2022-10-05T03:22:11.698Z,543.00
2022-10-05T03:23:11.328Z,539.00
2022-10-05T03:24:11.363Z,535.00
2022-10-05T03:25:11.477Z,539.00
2022-10-05T03:26:11.312Z,540.00
2022-10-05T03:27:11.348Z,541.00
2022-10-05T03:28:11.325Z,541.00
2022-10-05T03:29:11.338Z,541.00
2022-10-05T03:30:11.692Z,540.00
2022-10-05T03:31:11.359Z,536.00
2022-10-05T03:32:11.360Z,539.00
2022-10-05T03:33:11.360Z,537.00
2022-10-05T03:34:11.365Z,538.00
2022-10-05T03:35:11.295Z,539.00
2022-10-05T03:36:11.139Z,538.00
2022-10-05T03:37:11.306Z,538.00
2022-10-05T03:38:11.362Z,535.00
2022-10-05T03:39:11.107Z,532.00
2022-10-05T03:40:11.139Z,537.00
2022-10-05T03:41:11.281Z,535.00
2022-10-05T03:42:11.146Z,532.00
2022-10-05T03:43:11.308Z,532.00
2022-10-05T03:44:11.364Z,531.00
2022-10-05T03:45:11.215Z,530.00
2022-10-05T03:46:11.198Z,530.00
2022-10-05T03:47:10.973Z,528.00
2022-10-05T03:48:11.366Z,530.00
2022-10-05T03:49:11.217Z,533.00
2022-10-05T03:50:11.043Z,533.00
2022-10-05T03:51:11.062Z,537.00
2022-10-05T03:52:10.997Z,538.00
2022-10-05T03:53:11.041Z,537.00
2022-10-05T03:54:10.908Z,537.00
2022-10-05T03:55:10.889Z,539.00
2022-10-05T03:56:10.959Z,538.00
2022-10-05T03:57:10.885Z,539.00
2022-10-05T03:58:11.366Z,540.00
2022-10-05T03:59:10.885Z,538.00
2022-10-05T04:00:10.839Z,541.00
2022-10-05T04:01:10.924Z,540.00
2022-10-05T04:02:10.875Z,540.00
2022-10-05T04:03:10.887Z,541.00
2022-10-05T04:04:10.890Z,539.00
2022-10-05T04:05:10.890Z,541.00
2022-10-05T04:06:10.745Z,542.00
2022-10-05T04:07:10.690Z,541.00
2022-10-05T04:08:10.809Z,544.00
2022-10-05T04:09:10.898Z,542.00
2022-10-05T04:10:10.830Z,543.00
2022-10-05T04:11:10.884Z,542.00
2022-10-05T04:12:11.047Z,543.00
2022-10-05T04:13:10.916Z,543.00
2022-10-05T04:14:10.758Z,544.00
2022-10-05T04:15:14.117Z,544.00
2022-10-05T04:16:12.067Z,545.00
2022-10-05T04:17:11.228Z,546.00
2022-10-05T04:18:11.049Z,544.00
2022-10-05T04:19:10.890Z,542.00
2022-10-05T04:20:10.568Z,541.00
2022-10-05T04:21:10.886Z,540.00
2022-10-05T04:22:11.056Z,543.00
2022-10-05T04:23:10.895Z,544.00
2022-10-05T04:24:10.497Z,544.00
2022-10-05T04:25:10.568Z,543.00
2022-10-05T04:26:10.538Z,539.00
2022-10-05T04:27:10.727Z,539.00
2022-10-05T04:28:10.564Z,538.00
2022-10-05T04:29:10.662Z,539.00
2022-10-05T04:30:10.407Z,538.00
2022-10-05T04:31:10.607Z,534.00
2022-10-05T04:32:10.494Z,536.00
2022-10-05T04:33:11.210Z,536.00
2022-10-05T04:34:10.416Z,538.00
2022-10-05T04:35:10.359Z,537.00
2022-10-05T04:36:10.406Z,537.00
2022-10-05T04:37:10.406Z,536.00
2022-10-05T04:38:10.405Z,535.00
2022-10-05T04:39:10.565Z,538.00
2022-10-05T04:40:10.409Z,537.00
2022-10-05T04:41:10.341Z,536.00
2022-10-05T04:42:10.487Z,536.00
2022-10-05T04:43:10.334Z,537.00
2022-10-05T04:44:10.518Z,534.00
2022-10-05T04:45:10.257Z,536.00
2022-10-05T04:46:10.753Z,536.00
2022-10-05T04:47:10.381Z,537.00
2022-10-05T04:48:10.189Z,535.00
2022-10-05T04:49:10.176Z,537.00
2022-10-05T04:50:10.405Z,537.00
2022-10-05T04:51:10.365Z,538.00
2022-10-05T04:52:10.408Z,536.00
2022-10-05T04:53:10.246Z,537.00
2022-10-05T04:54:10.407Z,536.00
2022-10-05T04:55:10.325Z,531.00
2022-10-05T04:56:10.164Z,531.00
2022-10-05T04:57:10.098Z,531.00
2022-10-05T04:58:10.168Z,532.00
2022-10-05T04:59:10.024Z,533.00
2022-10-05T05:00:10.099Z,534.00
2022-10-05T05:01:10.093Z,534.00
2022-10-05T05:02:10.087Z,534.00
2022-10-05T05:03:10.095Z,532.00
2022-10-05T05:04:10.174Z,532.00
2022-10-05T05:05:10.886Z,533.00
2022-10-05T05:06:17.471Z,533.00
2022-10-05T05:07:11.216Z,535.00
2022-10-05T05:08:10.169Z,536.00
2022-10-05T05:09:10.103Z,536.00
2022-10-05T05:10:10.405Z,539.00
2022-10-05T05:11:15.042Z,538.00
2022-10-05T05:12:11.515Z,537.00
2022-10-05T05:13:10.014Z,541.00
2022-10-05T05:14:09.853Z,539.00
2022-10-05T05:15:10.094Z,539.00
2022-10-05T05:16:09.925Z,539.00
2022-10-05T05:17:13.162Z,542.00
2022-10-05T05:18:10.097Z,538.00
2022-10-05T05:19:09.935Z,537.00
2022-10-05T05:20:10.108Z,537.00
2022-10-05T05:21:09.773Z,539.00
2022-10-05T05:22:09.861Z,539.00
2022-10-05T05:23:09.932Z,541.00
2022-10-05T05:24:09.848Z,540.00
2022-10-05T05:25:10.280Z,539.00
2022-10-05T05:26:09.770Z,537.00
2022-10-05T05:27:09.928Z,535.00
2022-10-05T05:28:10.119Z,536.00
2022-10-05T05:29:09.789Z,533.00
2022-10-05T05:30:09.764Z,531.00
2022-10-05T05:31:09.733Z,531.00
2022-10-05T05:32:09.854Z,530.00
2022-10-05T05:33:09.783Z,532.00
2022-10-05T05:34:09.860Z,532.00
2022-10-05T05:35:09.694Z,530.00
2022-10-05T05:36:09.540Z,531.00
2022-10-05T05:37:09.931Z,529.00
2022-10-05T05:38:09.557Z,526.00
2022-10-05T05:39:09.609Z,524.00
2022-10-05T05:40:09.766Z,521.00
2022-10-05T05:41:09.604Z,523.00
2022-10-05T05:42:09.768Z,523.00
2022-10-05T05:43:09.611Z,525.00
2022-10-05T05:44:09.764Z,526.00
2022-10-05T05:45:10.562Z,528.00
2022-10-05T05:46:09.664Z,530.00
2022-10-05T05:47:10.204Z,533.00
2022-10-05T05:48:09.522Z,529.00
2022-10-05T05:49:09.616Z,529.00
2022-10-05T05:50:10.087Z,526.00
2022-10-05T05:51:09.603Z,528.00
2022-10-05T05:52:09.766Z,527.00
2022-10-05T05:53:09.612Z,527.00
2022-10-05T05:54:09.763Z,528.00
2022-10-05T05:55:09.443Z,525.00
2022-10-05T05:56:09.442Z,526.00
2022-10-05T05:57:09.422Z,527.00
2022-10-05T05:58:09.542Z,528.00
2022-10-05T05:59:13.533Z,525.00
2022-10-05T06:00:09.546Z,524.00
2022-10-05T06:01:25.022Z,522.00
2022-10-05T06:02:10.532Z,528.00
2022-10-05T06:03:09.293Z,526.00
2022-10-05T06:04:09.448Z,524.00
2022-10-05T06:05:09.282Z,525.00
2022-10-05T06:06:09.443Z,524.00
2022-10-05T06:07:09.385Z,523.00
2022-10-05T06:08:09.357Z,522.00
2022-10-05T06:09:09.129Z,522.00
2022-10-05T06:10:09.210Z,519.00
2022-10-05T06:11:09.303Z,517.00
2022-10-05T06:12:09.443Z,516.00
2022-10-05T06:13:09.922Z,519.00
2022-10-05T06:14:09.282Z,520.00
2022-10-05T06:15:09.931Z,519.00
2022-10-05T06:16:09.175Z,519.00
2022-10-05T06:17:09.045Z,521.00
2022-10-05T06:18:09.224Z,521.00
2022-10-05T06:19:09.109Z,520.00
2022-10-05T06:20:09.442Z,520.00
2022-10-05T06:21:09.282Z,518.00
2022-10-05T06:22:09.451Z,518.00
2022-10-05T06:23:09.065Z,518.00
2022-10-05T06:24:09.127Z,520.00
2022-10-05T06:25:09.129Z,521.00
2022-10-05T06:26:10.927Z,520.00
2022-10-05T06:27:08.973Z,522.00
2022-10-05T06:28:09.281Z,524.00
2022-10-05T06:29:08.981Z,525.00
2022-10-05T06:30:08.975Z,522.00
2022-10-05T06:31:09.036Z,521.00
2022-10-05T06:32:09.029Z,515.00
2022-10-05T06:33:08.818Z,513.00
2022-10-05T06:34:09.121Z,514.00
2022-10-05T06:35:10.270Z,512.00
2022-10-05T06:36:09.122Z,513.00
2022-10-05T06:37:09.930Z,514.00
2022-10-05T06:38:08.800Z,514.00
2022-10-05T06:39:08.753Z,514.00
2022-10-05T06:40:08.891Z,515.00
2022-10-05T06:41:08.800Z,510.00
2022-10-05T06:42:08.979Z,509.00
2022-10-05T06:43:08.962Z,509.00
2022-10-05T06:44:09.150Z,508.00
2022-10-05T06:45:08.963Z,507.00
2022-10-05T06:46:08.952Z,506.00
2022-10-05T06:47:09.451Z,508.00
2022-10-05T06:48:09.130Z,511.00
2022-10-05T06:49:09.612Z,513.00
2022-10-05T06:50:08.613Z,512.00
2022-10-05T06:51:08.653Z,515.00
2022-10-05T06:52:08.799Z,515.00
2022-10-05T06:53:10.901Z,515.00
2022-10-05T06:54:09.460Z,514.00
2022-10-05T06:55:13.279Z,513.00
2022-10-05T06:56:09.778Z,514.00
2022-10-05T06:57:08.480Z,514.00
2022-10-05T06:58:08.652Z,516.00
2022-10-05T06:59:08.487Z,512.00
2022-10-05T07:00:08.606Z,511.00
2022-10-05T07:01:09.054Z,510.00
2022-10-05T07:02:08.536Z,509.00
2022-10-05T07:03:08.404Z,508.00
2022-10-05T07:04:08.570Z,506.00
2022-10-05T07:05:08.498Z,508.00
2022-10-05T07:06:08.582Z,509.00
2022-10-05T07:07:08.643Z,512.00
2022-10-05T07:08:08.851Z,510.00
2022-10-05T07:09:08.414Z,510.00
2022-10-05T07:10:08.489Z,510.00
2022-10-05T07:11:08.641Z,514.00
2022-10-05T07:12:08.594Z,516.00
2022-10-05T07:13:08.479Z,512.00
2022-10-05T07:14:12.482Z,513.00
2022-10-05T07:15:08.330Z,513.00
2022-10-05T07:16:08.512Z,512.00
2022-10-05T07:17:08.639Z,514.00
2022-10-05T07:18:08.271Z,512.00
2022-10-05T07:19:14.726Z,511.00
2022-10-05T07:20:08.338Z,509.00
2022-10-05T07:21:09.602Z,510.00
2022-10-05T07:23:09.608Z,509.00
2022-10-05T07:24:12.640Z,511.00
2022-10-05T07:25:08.639Z,508.00
2022-10-05T07:26:08.352Z,506.00
2022-10-05T07:27:08.971Z,508.00
2022-10-05T07:28:08.543Z,507.00
2022-10-05T07:29:08.123Z,507.00
2022-10-05T07:30:08.258Z,506.00
2022-10-05T07:31:08.423Z,507.00
2022-10-05T07:32:08.178Z,510.00
2022-10-05T07:33:08.015Z,505.00
2022-10-05T07:34:08.521Z,509.00
2022-10-05T07:35:08.019Z,507.00
2022-10-05T07:36:08.170Z,510.00
2022-10-05T07:37:08.013Z,509.00
2022-10-05T07:38:29.291Z,509.00
2022-10-05T07:39:07.921Z,510.00
2022-10-05T07:40:07.936Z,505.00
2022-10-05T07:41:08.002Z,506.00
2022-10-05T07:42:07.931Z,503.00
2022-10-05T07:43:08.004Z,505.00
2022-10-05T07:44:12.514Z,507.00
2022-10-05T07:45:08.982Z,509.00
2022-10-05T07:46:08.073Z,508.00
2022-10-05T07:47:11.861Z,506.00
2022-10-05T07:48:07.961Z,506.00
2022-10-05T07:49:08.752Z,503.00
2022-10-05T07:50:07.845Z,504.00
2022-10-05T07:51:08.329Z,506.00
2022-10-05T07:52:07.959Z,507.00
2022-10-05T07:53:07.850Z,509.00
2022-10-05T07:54:07.920Z,505.00
2022-10-05T07:55:08.010Z,507.00
2022-10-05T07:56:07.858Z,509.00
2022-10-05T07:57:07.776Z,509.00
2022-10-05T07:58:07.939Z,508.00
2022-10-05T07:59:08.009Z,505.00
2022-10-05T08:00:07.846Z,505.00
2022-10-05T08:01:09.283Z,506.00
2022-10-05T08:02:07.992Z,503.00
2022-10-05T08:03:07.669Z,503.00
2022-10-05T08:04:07.847Z,503.00
2022-10-05T08:05:08.005Z,501.00
2022-10-05T08:06:07.841Z,500.00
2022-10-05T08:07:07.684Z,502.00
2022-10-05T08:08:07.721Z,503.00
2022-10-05T08:09:07.690Z,503.00
2022-10-05T08:10:07.844Z,506.00
2022-10-05T08:11:07.690Z,509.00
2022-10-05T08:12:07.855Z,502.00
2022-10-05T08:13:07.491Z,501.00
2022-10-05T08:14:07.528Z,500.00
2022-10-05T08:15:07.523Z,500.00
2022-10-05T08:16:07.603Z,504.00
2022-10-05T08:17:07.459Z,503.00
2022-10-05T08:18:07.538Z,506.00
2022-10-05T08:19:07.450Z,509.00
2022-10-05T08:20:07.847Z,509.00
2022-10-05T08:21:07.459Z,498.00
2022-10-05T08:22:07.360Z,500.00
2022-10-05T08:23:07.530Z,500.00
2022-10-05T08:24:07.370Z,500.00
2022-10-05T08:25:11.846Z,501.00
2022-10-05T08:26:07.884Z,499.00
2022-10-05T08:27:07.370Z,495.00
2022-10-05T08:28:07.383Z,499.00
2022-10-05T08:29:10.288Z,496.00
2022-10-05T08:30:08.494Z,499.00
2022-10-05T08:31:07.433Z,497.00
2022-10-05T08:32:07.859Z,500.00
2022-10-05T08:33:07.361Z,502.00
2022-10-05T08:34:07.878Z,499.00
2022-10-05T08:35:07.211Z,496.00
2022-10-05T08:36:07.370Z,497.00
2022-10-05T08:37:07.370Z,501.00
2022-10-05T08:38:07.373Z,504.00
2022-10-05T08:39:07.382Z,505.00
2022-10-05T08:40:07.372Z,503.00
2022-10-05T08:41:07.143Z,501.00
2022-10-05T08:42:07.214Z,496.00
2022-10-05T08:43:07.155Z,497.00
2022-10-05T08:44:07.379Z,500.00
2022-10-05T08:45:07.370Z,497.00
2022-10-05T08:46:07.583Z,498.00
2022-10-05T08:47:07.374Z,496.00
2022-10-05T08:48:07.207Z,492.00
2022-10-05T08:49:07.365Z,492.00
2022-10-05T08:50:11.194Z,490.00
2022-10-05T08:51:07.131Z,488.00
2022-10-05T08:52:07.233Z,490.00
2022-10-05T08:53:07.151Z,490.00
2022-10-05T08:54:07.221Z,491.00
2022-10-05T08:55:08.012Z,491.00
2022-10-05T08:56:07.053Z,491.00
2022-10-05T08:57:08.647Z,489.00
2022-10-05T08:58:07.210Z,492.00
2022-10-05T08:59:07.061Z,495.00
2022-10-05T09:00:06.998Z,492.00
2022-10-05T09:01:07.830Z,494.00
2022-10-05T09:02:06.952Z,494.00
2022-10-05T09:03:07.048Z,493.00
2022-10-05T09:04:07.208Z,491.00
2022-10-05T09:05:07.051Z,493.00
2022-10-05T09:06:06.887Z,492.00
2022-10-05T09:07:07.057Z,494.00
2022-10-05T09:08:06.803Z,492.00
2022-10-05T09:09:06.834Z,492.00
2022-10-05T09:10:06.883Z,494.00
2022-10-05T09:11:06.823Z,497.00
2022-10-05T09:12:08.488Z,495.00
2022-10-05T09:13:07.044Z,496.00
2022-10-05T09:14:06.731Z,497.00
2022-10-05T09:15:24.960Z,499.00
2022-10-05T09:16:11.799Z,494.00
2022-10-05T09:17:06.732Z,495.00
2022-10-05T09:18:06.733Z,496.00
2022-10-05T09:19:07.363Z,496.00
2022-10-05T09:20:06.787Z,493.00
2022-10-05T09:21:06.855Z,495.00
2022-10-05T09:22:06.700Z,492.00
2022-10-05T09:23:06.565Z,495.00
2022-10-05T09:24:06.661Z,494.00
2022-10-05T09:25:06.731Z,492.00
2022-10-05T09:26:06.591Z,496.00
2022-10-05T09:27:06.532Z,486.00
2022-10-05T09:28:06.603Z,486.00
2022-10-05T09:29:06.730Z,484.00
2022-10-05T09:30:06.671Z,480.00
2022-10-05T09:31:06.514Z,484.00
2022-10-05T09:32:06.576Z,478.00
2022-10-05T09:33:06.728Z,483.00
2022-10-05T09:34:06.656Z,527.00
2022-10-05T09:35:06.491Z,502.00
2022-10-05T09:36:06.883Z,495.00
2022-10-05T09:37:06.503Z,484.00
2022-10-05T09:38:06.931Z,480.00
2022-10-05T09:39:06.412Z,488.00
2022-10-05T09:40:06.386Z,505.00
2022-10-05T09:41:06.352Z,492.00
2022-10-05T09:42:06.362Z,493.00
2022-10-05T09:43:06.359Z,492.00
2022-10-05T09:44:06.570Z,492.00
2022-10-05T09:45:06.412Z,490.00
2022-10-05T09:46:06.305Z,485.00
2022-10-05T09:47:06.514Z,489.00
2022-10-05T09:48:06.575Z,472.00
2022-10-05T09:49:06.412Z,486.00
2022-10-05T09:50:06.276Z,516.00
2022-10-05T09:51:06.193Z,501.00
2022-10-05T09:52:06.267Z,489.00
2022-10-05T09:53:06.443Z,487.00
2022-10-05T09:54:06.170Z,488.00
2022-10-05T09:55:06.181Z,494.00
2022-10-05T09:56:06.574Z,494.00
2022-10-05T09:57:06.112Z,500.00
2022-10-05T09:58:06.086Z,493.00
2022-10-05T09:59:06.415Z,497.00
2022-10-05T10:01:09.963Z,496.00
2022-10-05T10:02:07.266Z,494.00
2022-10-05T10:03:06.293Z,486.00
2022-10-05T10:04:06.064Z,482.00
2022-10-05T10:05:06.203Z,485.00
2022-10-05T10:06:06.034Z,486.00
2022-10-05T10:07:06.094Z,481.00
2022-10-05T10:08:06.117Z,482.00
2022-10-05T10:09:05.957Z,482.00
2022-10-05T10:10:06.224Z,483.00
2022-10-05T10:11:09.925Z,490.00
2022-10-05T10:12:06.084Z,486.00
2022-10-05T10:13:06.286Z,490.00
2022-10-05T10:14:06.065Z,487.00
2022-10-05T10:15:05.917Z,486.00
2022-10-05T10:16:06.074Z,487.00
2022-10-05T10:17:05.865Z,483.00
2022-10-05T10:18:06.015Z,484.00
2022-10-05T10:19:06.448Z,483.00
2022-10-05T10:20:06.054Z,482.00
2022-10-05T10:21:06.098Z,497.00
2022-10-05T10:22:05.828Z,483.00
2022-10-05T10:23:05.926Z,490.00
2022-10-05T10:24:06.025Z,484.00
2022-10-05T10:25:06.102Z,511.00
2022-10-05T10:26:06.248Z,480.00
2022-10-05T10:27:05.770Z,482.00
2022-10-05T10:28:07.480Z,483.00
2022-10-05T10:29:05.771Z,476.00
2022-10-05T10:30:05.775Z,480.00
2022-10-05T10:31:05.786Z,478.00
2022-10-05T10:32:05.926Z,478.00
2022-10-05T10:33:05.625Z,491.00
2022-10-05T10:34:05.767Z,483.00
2022-10-05T10:35:05.606Z,486.00
2022-10-05T10:36:07.067Z,488.00
2022-10-05T10:37:05.767Z,496.00
2022-10-05T10:38:05.783Z,507.00
2022-10-05T10:39:05.769Z,497.00
2022-10-05T10:40:05.618Z,492.00
2022-10-05T10:41:05.537Z,549.00
2022-10-05T10:42:05.607Z,512.00
2022-10-05T10:43:05.596Z,491.00
2022-10-05T10:44:05.607Z,488.00
2022-10-05T10:45:05.767Z,485.00
2022-10-05T10:46:05.651Z,484.00
2022-10-05T10:47:05.766Z,488.00
2022-10-05T10:48:05.926Z,489.00
2022-10-05T10:49:05.546Z,488.00
2022-10-05T10:50:05.429Z,487.00
2022-10-05T10:51:05.770Z,485.00
2022-10-05T10:52:05.601Z,642.00
2022-10-05T10:53:05.450Z,492.00
2022-10-05T10:54:05.390Z,488.00
2022-10-05T10:55:05.770Z,483.00
2022-10-05T10:56:05.446Z,595.00
2022-10-05T10:57:05.790Z,506.00
2022-10-05T10:58:05.382Z,484.00
2022-10-05T10:59:05.559Z,481.00
2022-10-05T11:00:05.372Z,476.00
2022-10-05T11:01:05.779Z,481.00
2022-10-05T11:02:05.651Z,510.00
2022-10-05T11:03:05.406Z,484.00
2022-10-05T11:04:05.295Z,488.00
2022-10-05T11:05:05.217Z,486.00
2022-10-05T11:06:05.281Z,483.00
2022-10-05T11:07:05.172Z,478.00
2022-10-05T11:08:05.282Z,534.00
2022-10-05T11:09:05.220Z,488.00
2022-10-05T11:10:05.130Z,486.00
2022-10-05T11:11:05.450Z,496.00
2022-10-05T11:12:05.608Z,473.00
2022-10-05T11:13:05.446Z,479.00
2022-10-05T11:14:05.126Z,479.00
2022-10-05T11:15:05.130Z,481.00
2022-10-05T11:16:05.110Z,480.00
2022-10-05T11:17:05.126Z,481.00
2022-10-05T11:18:05.053Z,483.00
2022-10-05T11:19:05.441Z,484.00
2022-10-05T11:20:05.490Z,480.00
2022-10-05T11:21:05.140Z,487.00
2022-10-05T11:22:05.082Z,477.00
2022-10-05T11:23:04.953Z,481.00
2022-10-05T11:24:05.632Z,476.00
2022-10-05T11:25:04.923Z,479.00
2022-10-05T11:26:05.639Z,480.00
2022-10-05T11:27:04.917Z,469.00
2022-10-05T11:28:05.322Z,476.00
2022-10-05T11:29:04.971Z,481.00
2022-10-05T11:30:05.044Z,478.00
2022-10-05T11:31:04.951Z,480.00
2022-10-05T11:32:04.969Z,477.00
2022-10-05T11:33:05.132Z,477.00
2022-10-05T11:34:09.123Z,473.00
2022-10-05T11:35:04.962Z,479.00
2022-10-05T11:36:04.804Z,478.00
2022-10-05T11:37:05.475Z,476.00
2022-10-05T11:38:04.785Z,470.00
2022-10-05T11:39:04.816Z,473.00
2022-10-05T11:40:04.788Z,478.00
2022-10-05T11:41:05.177Z,471.00
2022-10-05T11:42:04.735Z,475.00
2022-10-05T11:43:04.883Z,480.00
2022-10-05T11:44:06.951Z,541.00
2022-10-05T11:45:08.965Z,519.00
2022-10-05T11:46:09.467Z,490.00
2022-10-05T11:47:05.123Z,474.00
2022-10-05T11:48:04.974Z,469.00
2022-10-05T11:49:04.634Z,475.00
2022-10-05T11:50:04.677Z,473.00
2022-10-05T11:51:04.807Z,471.00
2022-10-05T11:52:04.587Z,474.00
2022-10-05T11:53:04.637Z,474.00
2022-10-05T11:54:05.306Z,480.00
2022-10-05T11:55:12.439Z,477.00
2022-10-05T11:56:05.933Z,474.00
2022-10-05T11:57:04.625Z,474.00
2022-10-05T11:58:04.965Z,475.00
2022-10-05T11:59:05.185Z,475.00
2022-10-05T12:00:04.997Z,471.00
2022-10-05T12:01:04.612Z,472.00
2022-10-05T12:02:05.958Z,468.00
2022-10-05T12:03:04.676Z,479.00
2022-10-05T12:04:04.698Z,479.00
2022-10-05T12:05:04.574Z,485.00
2022-10-05T12:06:04.485Z,525.00
2022-10-05T12:07:04.587Z,541.00
2022-10-05T12:08:04.689Z,503.00
2022-10-05T12:09:04.418Z,483.00
2022-10-05T12:10:04.552Z,475.00
2022-10-05T12:11:04.645Z,475.00
2022-10-05T12:12:04.428Z,477.00
2022-10-05T12:13:04.280Z,480.00
2022-10-05T12:14:04.327Z,477.00
2022-10-05T12:15:04.279Z,476.00
2022-10-05T12:16:04.685Z,471.00
2022-10-05T12:17:04.495Z,475.00
2022-10-05T12:18:04.324Z,534.00
2022-10-05T12:19:04.258Z,632.00
2022-10-05T12:20:04.549Z,489.00
2022-10-05T12:21:04.264Z,487.00
2022-10-05T12:22:04.345Z,484.00
2022-10-05T12:23:04.325Z,517.00
2022-10-05T12:24:04.180Z,480.00
2022-10-05T12:25:04.330Z,479.00
2022-10-05T12:26:04.364Z,499.00
2022-10-05T12:27:04.166Z,516.00
2022-10-05T12:28:04.152Z,495.00
2022-10-05T12:29:04.488Z,595.00
2022-10-05T12:30:04.653Z,570.00